Time;durP1;ratioP1;P1;durP2;ratioP2;P2;SDS_P1;SDS_P2;PMS_P1;PMS_P2;Temp;Humidity;BMP_temperature;BMP_pressure;BME280_temperature;BME280_humidity;BME280_pressure;Samples;Min_cycle;Max_cycle;Signal;HPM_P1;HPM_P2
2023/09/29 00:01:35;;;;;;;0.32;0.10;;;;;;;19.74;nan;99136.50;7388737;19;20052;-82
2023/09/29 00:04:02;;;;;;;0.10;0.10;;;;;;;19.88;nan;99132.25;7388873;19;20036;-83
2023/09/29 00:06:28;;;;;;;0.30;0.30;;;;;;;17.49;nan;99141.94;7390998;19;20014;-83
2023/09/29 00:08:54;;;;;;;0.70;0.10;;;;;;;16.23;nan;99144.22;7396943;19;20022;-83
2023/09/29 00:11:20;;;;;;;0.20;0.10;;;;;;;16.40;nan;99136.31;7398310;19;20027;-82
2023/09/29 00:13:46;;;;;;;0.17;0.03;;;;;;;15.58;nan;99132.53;7398058;19;20037;-81
2023/09/29 00:16:13;;;;;;;7.43;0.40;;;;;;;15.55;nan;99119.56;7394973;19;20053;-82
2023/09/29 00:18:39;;;;;;;0.20;0.10;;;;;;;15.08;nan;99125.34;7398524;19;20041;-81
2023/09/29 00:21:05;;;;;;;2.38;0.13;;;;;;;15.15;nan;99138.03;7396294;19;20019;-81
2023/09/29 00:23:31;;;;;;;0.40;0.25;;;;;;;17.23;nan;99139.88;7400214;19;20040;-81
2023/09/29 00:25:57;;;;;;;0.55;0.20;;;;;;;14.21;nan;99149.91;7394605;19;20015;-81
2023/09/29 00:28:23;;;;;;;0.63;0.20;;;;;;;13.61;nan;99166.47;7401454;19;20018;-81
2023/09/29 00:30:49;;;;;;;0.20;0.20;;;;;;;13.44;nan;99162.19;7394870;19;20082;-82
2023/09/29 00:33:15;;;;;;;0.73;0.20;;;;;;;15.62;nan;99155.44;7396415;19;20019;-81
2023/09/29 00:35:41;;;;;;;1.08;0.25;;;;;;;17.64;nan;99145.78;7393447;19;20413;-81
2023/09/29 00:38:09;;;;;;;1.65;0.20;;;;;;;17.53;nan;99151.63;7400782;19;20014;-81
2023/09/29 00:40:35;;;;;;;1.30;0.63;;;;;;;15.46;nan;99150.78;7396382;19;20015;-81
2023/09/29 00:43:03;;;;;;;0.60;0.32;;;;;;;14.36;nan;99167.94;7397681;19;20042;-81
2023/09/29 00:45:29;;;;;;;0.15;0.10;;;;;;;13.15;nan;99177.47;7396458;19;20022;-81
2023/09/29 00:48:03;;;;;;;0.28;0.28;;;;;;;13.09;nan;99182.31;7400216;19;20022;-82
2023/09/29 00:50:30;;;;;;;1.17;0.20;;;;;;;12.84;nan;99188.91;7395943;19;20303;-82
2023/09/29 00:52:58;;;;;;;2.72;0.50;;;;;;;12.75;nan;99187.09;7397812;19;20019;-82
2023/09/29 00:55:29;;;;;;;0.10;0.10;;;;;;;12.74;nan;99193.19;7393548;19;20025;-82
2023/09/29 00:57:59;;;;;;;0.10;0.10;;;;;;;12.76;nan;99196.22;7396022;19;20070;-82
2023/09/29 01:02:59;;;;;;;0.55;0.28;;;;;;;12.84;nan;99200.81;7393310;19;20023;-81
2023/09/29 01:05:26;;;;;;;1.88;0.40;;;;;;;14.07;nan;99199.38;7392867;19;20359;-82
2023/09/29 01:07:52;;;;;;;0.10;0.10;;;;;;;13.01;nan;99202.88;7398223;19;20010;-82
2023/09/29 01:10:19;;;;;;;0.10;0.00;;;;;;;13.32;nan;99206.19;7396253;19;20025;-81
2023/09/29 01:12:45;;;;;;;3.63;0.47;;;;;;;13.37;nan;99208.22;7393944;19;20026;-82
2023/09/29 01:15:13;;;;;;;0.17;0.17;;;;;;;13.41;nan;99203.13;7391216;19;20006;-81
2023/09/29 01:17:41;;;;;;;0.95;0.30;;;;;;;18.16;nan;99185.19;7396140;19;20094;-81
2023/09/29 01:20:15;;;;;;;0.30;0.15;;;;;;;20.22;nan;99181.66;7389350;19;20578;-82
2023/09/29 01:22:46;;;;;;;0.65;0.65;;;;;;;16.21;nan;99183.34;7393885;19;20018;-82
2023/09/29 01:25:15;;;;;;;1.38;0.63;;;;;;;17.53;nan;99182.59;7394261;19;20483;-82
2023/09/29 01:27:42;;;;;;;0.10;0.10;;;;;;;17.85;nan;99182.50;7399322;19;20011;-82
2023/09/29 01:30:13;;;;;;;0.10;0.05;;;;;;;17.92;nan;99182.63;7395968;19;20014;-82
2023/09/29 01:32:43;;;;;;;0.10;0.05;;;;;;;18.60;nan;99182.75;7394664;19;20032;-82
2023/09/29 01:35:14;;;;;;;0.10;0.10;;;;;;;18.18;nan;99193.88;7392202;19;20018;-82
2023/09/29 01:37:42;;;;;;;0.13;0.13;;;;;;;18.68;nan;99177.94;7395952;19;20594;-83
2023/09/29 01:40:09;;;;;;;0.10;0.03;;;;;;;18.74;nan;99175.75;7388978;19;20369;-83
2023/09/29 01:42:36;;;;;;;0.38;0.20;;;;;;;18.78;nan;99182.56;7389930;19;20032;-83
2023/09/29 01:45:04;;;;;;;0.70;0.03;;;;;;;18.71;nan;99188.88;7389974;19;20494;-82
2023/09/29 01:47:31;;;;;;;0.20;0.00;;;;;;;18.97;nan;99188.03;7397856;19;20078;-82
2023/09/29 01:49:57;;;;;;;0.10;0.10;;;;;;;19.10;nan;99190.75;7395519;19;20023;-83
2023/09/29 01:52:23;;;;;;;0.32;0.30;;;;;;;16.65;nan;99198.88;7395732;19;20022;-83
2023/09/29 01:54:49;;;;;;;0.13;0.13;;;;;;;18.70;nan;99193.00;7396447;19;20030;-82
2023/09/29 01:57:15;;;;;;;3.10;0.20;;;;;;;19.11;nan;99197.94;7392683;19;20078;-82
2023/09/29 01:59:42;;;;;;;0.20;0.20;;;;;;;19.46;nan;99188.88;7391030;19;20016;-83
2023/09/29 02:02:08;;;;;;;0.40;0.20;;;;;;;19.75;nan;99191.72;7390999;19;20025;-83
2023/09/29 02:04:34;;;;;;;0.10;0.00;;;;;;;19.30;nan;99197.72;7390602;19;20043;-82
2023/09/29 02:07:01;;;;;;;1.10;0.10;;;;;;;19.24;nan;99205.56;7397081;19;20353;-82
2023/09/29 02:09:27;;;;;;;0.38;0.35;;;;;;;19.22;nan;99202.56;7394622;19;20018;-83
2023/09/29 02:11:54;;;;;;;0.10;0.10;;;;;;;19.20;nan;99211.59;7392730;19;20037;-82
2023/09/29 02:14:20;;;;;;;2.10;0.25;;;;;;;19.20;nan;99200.28;7391497;19;20019;-83
2023/09/29 02:16:48;;;;;;;1.25;0.20;;;;;;;19.20;nan;99205.94;7391627;19;20023;-82
2023/09/29 02:19:16;;;;;;;0.10;0.10;;;;;;;19.21;nan;99206.69;7391933;19;20018;-83
2023/09/29 02:21:43;;;;;;;0.20;0.15;;;;;;;19.17;nan;99212.66;7391326;19;20034;-83
2023/09/29 02:24:10;;;;;;;2.75;0.40;;;;;;;19.18;nan;99219.09;7393879;19;20017;-84
2023/09/29 02:26:38;;;;;;;0.10;0.10;;;;;;;19.15;nan;99220.94;7392303;19;20018;-81
2023/09/29 02:29:05;;;;;;;1.35;0.30;;;;;;;19.10;nan;99213.34;7393748;19;20015;-83
2023/09/29 02:31:31;;;;;;;0.10;0.00;;;;;;;19.09;nan;99222.38;7392148;19;20472;-83
2023/09/29 02:33:58;;;;;;;0.35;0.30;;;;;;;19.91;nan;99230.06;7391999;19;20485;-82
2023/09/29 02:36:24;;;;;;;0.50;0.20;;;;;;;18.68;nan;99240.75;7393448;19;20022;-83
2023/09/29 02:38:50;;;;;;;0.47;0.25;;;;;;;19.68;nan;99227.06;7393858;19;20038;-83
2023/09/29 02:41:16;;;;;;;0.70;0.17;;;;;;;19.08;nan;99232.16;7391251;19;20876;-83
2023/09/29 02:43:42;;;;;;;0.65;0.47;;;;;;;22.84;nan;99237.41;7391825;19;20014;-82
2023/09/29 02:46:15;;;;;;;0.32;0.30;;;;;;;20.03;nan;99242.59;7391570;19;20014;-83
2023/09/29 02:48:42;;;;;;;0.35;0.20;;;;;;;19.35;nan;99245.63;7391691;19;20021;-83
2023/09/29 02:51:16;;;;;;;0.43;0.30;;;;;;;23.54;nan;99256.31;7390975;19;20471;-82
2023/09/29 02:53:43;;;;;;;0.20;0.10;;;;;;;21.65;nan;99256.94;7394170;19;20026;-83
2023/09/29 02:56:12;;;;;;;1.13;0.55;;;;;;;20.17;nan;99270.19;7389309;19;20472;-83
2023/09/29 02:58:39;;;;;;;0.22;0.20;;;;;;;19.76;nan;99266.69;7393594;19;20015;-83
2023/09/29 03:01:11;;;;;;;0.90;0.15;;;;;;;19.40;nan;99269.41;7392758;19;20098;-83
2023/09/29 03:03:45;;;;;;;1.75;0.47;;;;;;;20.02;nan;99272.16;7391396;19;20011;-83
2023/09/29 03:06:23;;;;;;;1.33;0.20;;;;;;;19.72;nan;99266.28;7390081;19;20014;-83
2023/09/29 03:08:54;;;;;;;0.55;0.40;;;;;;;20.21;nan;99272.69;7390924;19;20018;-83
2023/09/29 03:11:21;;;;;;;0.50;0.32;;;;;;;19.57;nan;99261.25;7390475;19;20018;-83
2023/09/29 03:13:47;;;;;;;0.43;0.28;;;;;;;19.22;nan;99259.78;7391766;19;20023;-83
2023/09/29 03:16:14;;;;;;;1.27;0.30;;;;;;;17.56;nan;99274.44;7389091;19;20014;-83
2023/09/29 03:18:40;;;;;;;0.55;0.30;;;;;;;14.56;nan;99280.91;7391009;19;20493;-84
2023/09/29 03:21:09;;;;;;;0.30;0.20;;;;;;;19.00;nan;99271.59;7391030;19;20650;-83
2023/09/29 03:23:36;;;;;;;1.63;0.20;;;;;;;18.69;nan;99293.03;7393933;19;20528;-85
2023/09/29 03:26:04;;;;;;;1.02;0.15;;;;;;;15.72;nan;99294.19;7390204;19;20022;-85
2023/09/29 03:28:31;;;;;;;1.58;0.60;;;;;;;16.66;nan;99304.41;7394917;19;20019;-83
2023/09/29 03:31:00;;;;;;;2.53;0.90;;;;;;;14.75;nan;99313.44;7389895;19;20016;-85
2023/09/29 03:33:27;;;;;;;1.10;0.80;;;;;;;14.34;nan;99321.75;7390267;19;20502;-82
2023/09/29 03:35:56;;;;;;;0.38;0.38;;;;;;;35.80;nan;99287.41;7390957;19;20022;-83
2023/09/29 03:38:25;;;;;;;0.93;0.10;;;;;;;25.74;nan;99323.69;7395491;19;20362;-82
2023/09/29 03:40:52;;;;;;;0.57;0.10;;;;;;;20.53;nan;99338.09;7384741;19;20011;-83
2023/09/29 03:43:24;;;;;;;3.95;0.65;;;;;;;22.32;nan;99346.16;7389024;19;20719;-83
2023/09/29 03:45:53;;;;;;;0.63;0.20;;;;;;;45.45;nan;99302.31;7392576;19;20031;-83
2023/09/29 03:48:20;;;;;;;0.10;0.00;;;;;;;25.98;nan;99337.00;7397811;19;20033;-84
2023/09/29 03:50:49;;;;;;;0.57;0.28;;;;;;;19.77;nan;99355.81;7395299;19;20113;-83
2023/09/29 03:53:19;;;;;;;0.10;0.10;;;;;;;17.17;nan;99361.50;7394450;19;20018;-83
2023/09/29 03:55:45;;;;;;;1.02;0.35;;;;;;;16.54;nan;99367.69;7393934;19;20436;-85
2023/09/29 03:58:11;;;;;;;1.25;0.57;;;;;;;16.08;nan;99376.28;7402512;19;20022;-85
2023/09/29 04:00:37;;;;;;;2.38;0.30;;;;;;;15.73;nan;99377.09;7397186;19;20041;-82
2023/09/29 04:03:04;;;;;;;0.10;0.10;;;;;;;15.62;nan;99382.81;7398562;19;20358;-83
2023/09/29 04:05:30;;;;;;;0.80;0.32;;;;;;;15.46;nan;99378.84;7397521;19;20041;-83
2023/09/29 04:07:56;;;;;;;0.77;0.20;;;;;;;15.25;nan;99390.91;7400620;19;20010;-84
2023/09/29 04:10:22;;;;;;;0.30;0.10;;;;;;;15.02;nan;99407.13;7396994;19;20014;-82
2023/09/29 04:12:48;;;;;;;0.30;0.28;;;;;;;14.99;nan;99396.91;7399246;19;20039;-83
2023/09/29 04:15:15;;;;;;;1.48;1.33;;;;;;;15.05;nan;99398.41;7395492;19;20361;-83
2023/09/29 04:17:41;;;;;;;0.20;0.20;;;;;;;14.99;nan;99411.72;7396934;19;20018;-82
2023/09/29 04:20:08;;;;;;;0.55;0.15;;;;;;;14.77;nan;99406.19;7395907;19;20476;-83
2023/09/29 04:22:35;;;;;;;0.47;0.30;;;;;;;15.07;nan;99409.88;7395698;19;20015;-83
2023/09/29 04:25:02;;;;;;;1.98;1.02;;;;;;;15.97;nan;99415.72;7393970;19;20024;-83
2023/09/29 04:27:29;;;;;;;4.05;0.60;;;;;;;15.76;nan;99415.38;7398121;19;20014;-83
2023/09/29 04:29:55;;;;;;;1.23;0.32;;;;;;;15.51;nan;99414.53;7395380;19;20353;-82
2023/09/29 04:32:21;;;;;;;1.77;0.88;;;;;;;15.64;nan;99419.53;7395812;19;20047;-83
2023/09/29 04:34:47;;;;;;;0.75;0.28;;;;;;;15.24;nan;99428.69;7394286;19;20464;-82
2023/09/29 04:37:14;;;;;;;0.63;0.28;;;;;;;15.25;nan;99441.41;7394649;19;20401;-82
2023/09/29 04:39:40;;;;;;;3.55;0.60;;;;;;;14.97;nan;99445.13;7393652;19;20020;-82
2023/09/29 04:42:06;;;;;;;0.20;0.20;;;;;;;15.08;nan;99438.69;7394381;19;20472;-83
2023/09/29 04:44:32;;;;;;;2.55;0.75;;;;;;;14.89;nan;99460.97;7393159;19;20033;-82
2023/09/29 04:46:59;;;;;;;1.45;0.98;;;;;;;15.22;nan;99460.06;7398654;19;20053;-83
2023/09/29 04:49:25;;;;;;;1.15;0.52;;;;;;;14.59;nan;99462.06;7397787;19;20014;-82
2023/09/29 04:51:51;;;;;;;1.30;0.80;;;;;;;15.20;nan;99463.38;7395868;19;20014;-82
2023/09/29 04:54:18;;;;;;;0.28;0.25;;;;;;;14.71;nan;99466.34;7396478;19;20082;-84
2023/09/29 04:56:45;;;;;;;0.43;0.30;;;;;;;15.03;nan;99471.09;7393540;19;20026;-84
2023/09/29 04:59:11;;;;;;;2.38;0.90;;;;;;;15.38;nan;99466.84;7393934;19;20032;-85
2023/09/29 05:01:37;;;;;;;0.50;0.40;;;;;;;15.46;nan;99467.88;7394073;19;20038;-84
2023/09/29 05:04:04;;;;;;;1.27;1.10;;;;;;;15.40;nan;99469.94;7391503;19;20010;-84
2023/09/29 05:06:30;;;;;;;0.17;0.10;;;;;;;15.30;nan;99468.69;7396080;19;20014;-83
2023/09/29 05:08:56;;;;;;;0.30;0.30;;;;;;;15.10;nan;99476.19;7396753;19;20018;-84
2023/09/29 05:11:25;;;;;;;1.55;0.57;;;;;;;15.07;nan;99477.19;7396096;19;20491;-84
2023/09/29 05:13:52;;;;;;;0.20;0.20;;;;;;;15.08;nan;99481.53;7395042;19;20015;-84
2023/09/29 05:16:19;;;;;;;2.65;0.82;;;;;;;14.90;nan;99498.91;7394237;19;20026;-84
2023/09/29 05:18:47;;;;;;;0.80;0.30;;;;;;;14.71;nan;99511.97;7395794;19;20360;-84
2023/09/29 05:21:14;;;;;;;2.22;0.80;;;;;;;14.42;nan;99506.91;7396115;19;20014;-84
2023/09/29 05:23:42;;;;;;;0.30;0.20;;;;;;;14.81;nan;99521.63;7397360;19;20029;-84
2023/09/29 05:26:08;;;;;;;0.70;0.45;;;;;;;14.34;nan;99514.28;7391118;19;20101;-84
2023/09/29 05:28:35;;;;;;;0.10;0.10;;;;;;;14.31;nan;99532.13;7396244;19;20460;-84
2023/09/29 05:31:03;;;;;;;0.30;0.20;;;;;;;14.35;nan;99524.22;7394071;19;20069;-83
2023/09/29 05:33:30;;;;;;;0.70;0.52;;;;;;;14.40;nan;99526.28;7393110;19;20026;-84
2023/09/29 05:35:57;;;;;;;0.22;0.22;;;;;;;14.38;nan;99528.78;7390821;19;20015;-83
2023/09/29 05:38:23;;;;;;;0.17;0.10;;;;;;;14.30;nan;99541.78;7399282;19;20467;-84
2023/09/29 05:40:51;;;;;;;2.22;1.20;;;;;;;14.21;nan;99542.78;7394324;19;20026;-85
2023/09/29 05:43:18;;;;;;;4.18;0.30;;;;;;;14.16;nan;99551.19;7394815;19;20102;-84
2023/09/29 05:45:47;;;;;;;0.95;0.65;;;;;;;14.17;nan;99558.31;7393289;19;20014;-82
2023/09/29 05:48:14;;;;;;;8.77;0.77;;;;;;;14.68;nan;99557.84;7396992;19;20018;-82
2023/09/29 05:50:41;;;;;;;0.10;0.10;;;;;;;14.61;nan;99566.78;7394538;19;20661;-80
2023/09/29 05:53:07;;;;;;;1.60;0.28;;;;;;;14.07;nan;99571.78;7395542;19;20027;-82
2023/09/29 05:55:33;;;;;;;2.28;0.30;;;;;;;13.87;nan;99574.03;7392407;19;20528;-82
2023/09/29 05:58:00;;;;;;;2.38;0.95;;;;;;;13.72;nan;99573.47;7394493;19;20348;-82
2023/09/29 06:00:27;;;;;;;5.05;0.55;;;;;;;13.69;nan;99575.25;7393017;19;20018;-82
2023/09/29 06:02:53;;;;;;;0.85;0.30;;;;;;;13.58;nan;99583.59;7391172;19;20488;-82
2023/09/29 06:05:20;;;;;;;0.90;0.57;;;;;;;13.54;nan;99588.66;7391536;19;20014;-82
2023/09/29 06:07:47;;;;;;;2.70;0.47;;;;;;;13.72;nan;99590.25;7397507;19;20061;-82
2023/09/29 06:10:13;;;;;;;0.57;0.52;;;;;;;13.78;nan;99597.41;7394578;19;20484;-82
2023/09/29 06:12:39;;;;;;;4.78;2.65;;;;;;;13.30;nan;99600.25;7392538;19;20478;-82
2023/09/29 06:15:06;;;;;;;1.70;1.05;;;;;;;13.36;nan;99603.84;7392539;19;20023;-82
2023/09/29 06:17:32;;;;;;;8.18;1.70;;;;;;;13.37;nan;99610.97;7392499;19;20039;-82
2023/09/29 06:19:58;;;;;;;3.08;2.55;;;;;;;13.47;nan;99617.13;7390218;19;20022;-82
2023/09/29 06:22:25;;;;;;;3.33;1.67;;;;;;;13.69;nan;99625.59;7390146;19;20041;-82
2023/09/29 06:24:51;;;;;;;3.30;1.52;;;;;;;13.47;nan;99636.72;7395742;19;20024;-82
2023/09/29 06:27:17;;;;;;;0.65;0.65;;;;;;;13.40;nan;99642.78;7395019;19;20070;-82
2023/09/29 06:29:50;;;;;;;1.23;0.65;;;;;;;13.20;nan;99646.47;7393692;19;20516;-82
2023/09/29 06:32:16;;;;;;;14.07;1.90;;;;;;;13.18;nan;99651.78;7393205;19;20055;-83
2023/09/29 06:34:42;;;;;;;2.47;1.40;;;;;;;13.20;nan;99657.66;7390897;19;20023;-83
2023/09/29 06:37:09;;;;;;;1.95;0.57;;;;;;;13.27;nan;99662.03;7390955;19;20022;-83
2023/09/29 06:39:36;;;;;;;2.45;1.73;;;;;;;13.19;nan;99666.53;7390217;19;20018;-81
2023/09/29 06:42:03;;;;;;;1.35;1.05;;;;;;;13.16;nan;99671.09;7390482;19;20023;-80
2023/09/29 06:44:30;;;;;;;0.77;0.65;;;;;;;13.70;nan;99671.94;7391344;19;20512;-81
2023/09/29 06:46:56;;;;;;;0.80;0.80;;;;;;;14.01;nan;99682.25;7395763;19;20019;-81
2023/09/29 06:49:22;;;;;;;2.80;1.58;;;;;;;13.82;nan;99689.56;7389883;19;20018;-81
2023/09/29 06:51:48;;;;;;;1.63;1.17;;;;;;;13.27;nan;99696.34;7391860;19;20856;-81
2023/09/29 06:54:15;;;;;;;1.95;1.15;;;;;;;13.16;nan;99701.84;7394238;19;20027;-81
2023/09/29 06:56:43;;;;;;;1.35;0.75;;;;;;;13.37;nan;99711.66;7389820;19;20029;-81
2023/09/29 06:59:10;;;;;;;0.90;0.73;;;;;;;13.55;nan;99716.88;7390354;19;20027;-81
2023/09/29 07:01:37;;;;;;;0.10;0.10;;;;;;;13.61;nan;99714.88;7388345;19;20026;-81
2023/09/29 07:04:04;;;;;;;1.25;0.98;;;;;;;13.51;nan;99716.31;7388363;19;20014;-82
2023/09/29 07:06:30;;;;;;;1.52;1.27;;;;;;;13.41;nan;99723.38;7390744;19;20007;-81
2023/09/29 07:08:56;;;;;;;1.08;0.82;;;;;;;13.92;nan;99722.44;7392478;19;20022;-81
2023/09/29 07:11:22;;;;;;;0.57;0.38;;;;;;;14.08;nan;99737.75;7390923;19;20488;-81
2023/09/29 07:13:49;;;;;;;0.50;0.28;;;;;;;14.38;nan;99736.13;7390670;19;20014;-81
2023/09/29 07:16:17;;;;;;;0.55;0.40;;;;;;;14.14;nan;99747.72;7389839;19;20494;-81
2023/09/29 07:18:43;;;;;;;1.77;0.52;;;;;;;14.53;nan;99747.88;7388812;19;20025;-81
2023/09/29 07:21:10;;;;;;;0.15;0.15;;;;;;;15.45;nan;99755.41;7392336;19;20033;-81
2023/09/29 07:23:36;;;;;;;1.20;0.38;;;;;;;14.68;nan;99759.66;7392592;19;20031;-81
2023/09/29 07:26:02;;;;;;;3.95;0.93;;;;;;;14.38;nan;99764.13;7388264;19;20034;-80
2023/09/29 07:28:28;;;;;;;1.52;0.90;;;;;;;15.70;nan;99757.94;7390830;19;20029;-81
2023/09/29 07:30:54;;;;;;;3.42;0.38;;;;;;;14.53;nan;99764.69;7392287;19;20094;-81
2023/09/29 07:33:20;;;;;;;7.88;0.90;;;;;;;14.40;nan;99767.97;7390564;19;20006;-81
2023/09/29 07:35:46;;;;;;;0.45;0.30;;;;;;;26.03;nan;99764.84;7386217;19;20018;-81
2023/09/29 07:38:13;;;;;;;0.93;0.38;;;;;;;40.29;nan;99731.72;7389596;19;20056;-82
2023/09/29 07:40:40;;;;;;;7.30;0.52;;;;;;;20.07;nan;99771.66;7389631;19;20029;-82
2023/09/29 07:43:06;;;;;;;0.70;0.40;;;;;;;15.98;nan;99788.78;7392237;19;20015;-81
2023/09/29 07:45:33;;;;;;;5.38;1.17;;;;;;;24.76;nan;99775.81;7389454;19;20010;-81
2023/09/29 07:47:59;;;;;;;3.88;1.00;;;;;;;16.50;nan;99789.63;7390682;19;20449;-81
2023/09/29 07:50:25;;;;;;;0.47;0.32;;;;;;;15.46;nan;99787.81;7393166;19;20010;-80
2023/09/29 07:52:52;;;;;;;1.45;0.65;;;;;;;14.46;nan;99804.44;7389853;19;20019;-81
2023/09/29 07:55:18;;;;;;;1.55;0.40;;;;;;;14.19;nan;99810.63;7392481;19;20015;-82
2023/09/29 07:57:44;;;;;;;1.27;0.47;;;;;;;15.14;nan;99807.66;7387730;19;20037;-81
2023/09/29 08:00:15;;;;;;;0.10;0.10;;;;;;;16.59;nan;99811.06;7387620;19;20029;-81
2023/09/29 08:02:43;;;;;;;4.13;0.57;;;;;;;15.08;nan;99818.13;7388600;19;20019;-81
2023/09/29 08:05:12;;;;;;;0.30;0.30;;;;;;;14.96;nan;99827.78;7388418;19;20006;-82
2023/09/29 08:07:39;;;;;;;0.22;0.22;;;;;;;15.79;nan;99827.84;7390915;19;20021;-82
2023/09/29 08:10:07;;;;;;;3.33;0.60;;;;;;;15.67;nan;99831.19;7391253;19;20508;-82
2023/09/29 08:12:33;;;;;;;7.65;0.40;;;;;;;16.10;nan;99834.44;7389981;19;20039;-82
2023/09/29 08:14:59;;;;;;;1.08;0.75;;;;;;;16.17;nan;99834.72;7387188;19;20021;-82
2023/09/29 08:17:29;;;;;;;2.92;0.35;;;;;;;15.30;nan;99836.25;7388908;19;20513;-82
2023/09/29 08:19:55;;;;;;;4.65;0.77;;;;;;;15.18;nan;99836.22;7387319;19;20358;-82
2023/09/29 08:22:21;;;;;;;0.98;0.70;;;;;;;15.23;nan;99839.53;7386939;19;20015;-82
2023/09/29 08:24:47;;;;;;;0.77;0.25;;;;;;;15.29;nan;99840.34;7390053;19;20033;-83
2023/09/29 08:27:13;;;;;;;3.03;1.02;;;;;;;15.33;nan;99838.03;7391641;19;20500;-82
2023/09/29 08:29:39;;;;;;;1.75;0.47;;;;;;;15.28;nan;99833.97;7394200;19;20048;-83
2023/09/29 08:32:06;;;;;;;3.88;1.52;;;;;;;15.14;nan;99841.31;7397516;19;20112;-82
2023/09/29 08:34:34;;;;;;;0.52;0.52;;;;;;;14.99;nan;99852.00;7394131;19;20040;-83
2023/09/29 08:37:00;;;;;;;1.88;0.52;;;;;;;15.20;nan;99853.31;7395722;19;20022;-83
2023/09/29 08:39:26;;;;;;;1.00;0.57;;;;;;;15.28;nan;99850.03;7396317;19;20018;-82
2023/09/29 08:42:03;;;;;;;0.75;0.65;;;;;;;15.63;nan;99848.31;7392827;19;20037;-83
2023/09/29 08:44:29;;;;;;;1.30;0.10;;;;;;;15.49;nan;99848.53;7394242;19;20042;-82
2023/09/29 08:47:04;;;;;;;0.20;0.20;;;;;;;15.35;nan;99849.53;7399321;19;20019;-82
2023/09/29 08:49:30;;;;;;;0.90;0.43;;;;;;;15.48;nan;99858.25;7395723;19;20014;-82
2023/09/29 08:52:00;;;;;;;1.70;0.65;;;;;;;15.41;nan;99855.91;7397160;19;20476;-82
2023/09/29 08:54:28;;;;;;;0.22;0.22;;;;;;;15.65;nan;99864.63;7399226;19;20043;-83
2023/09/29 08:56:56;;;;;;;0.40;0.40;;;;;;;15.22;nan;99864.06;7393303;19;20532;-82
2023/09/29 08:59:22;;;;;;;1.35;0.40;;;;;;;15.71;nan;99871.00;7392635;19;20030;-83
2023/09/29 09:01:49;;;;;;;0.10;0.00;;;;;;;15.85;nan;99875.63;7393120;19;20026;-82
2023/09/29 09:04:15;;;;;;;2.17;0.38;;;;;;;16.06;nan;99879.66;7394334;19;20023;-81
2023/09/29 09:06:41;;;;;;;0.32;0.32;;;;;;;15.78;nan;99881.72;7394352;19;20006;-82
2023/09/29 09:09:09;;;;;;;1.10;0.40;;;;;;;16.07;nan;99880.44;7392628;19;20081;-83
2023/09/29 09:11:42;;;;;;;0.73;0.30;;;;;;;16.12;nan;99897.28;7395279;19;20029;-83
2023/09/29 09:14:10;;;;;;;1.30;0.73;;;;;;;16.32;nan;99897.00;7393532;19;20029;-83
2023/09/29 09:16:38;;;;;;;0.10;0.10;;;;;;;15.87;nan;99895.53;7391603;19;20010;-82
2023/09/29 09:19:09;;;;;;;6.30;1.17;;;;;;;16.18;nan;99903.66;7393445;19;20582;-83
2023/09/29 09:21:35;;;;;;;2.40;0.63;;;;;;;16.79;nan;99908.38;7396101;19;20468;-83
2023/09/29 09:24:01;;;;;;;1.17;0.40;;;;;;;16.68;nan;99907.16;7396466;19;20014;-83
2023/09/29 09:26:28;;;;;;;0.65;0.47;;;;;;;16.81;nan;99903.78;7392622;19;20025;-84
2023/09/29 09:28:54;;;;;;;0.10;0.00;;;;;;;17.04;nan;99910.09;7393574;19;20492;-83
2023/09/29 09:31:20;;;;;;;1.85;0.43;;;;;;;16.85;nan;99926.03;7394816;19;20039;-86
2023/09/29 09:33:50;;;;;;;0.10;0.00;;;;;;;16.97;nan;99925.47;7393476;19;20015;-86
2023/09/29 09:36:16;;;;;;;0.10;0.00;;;;;;;17.00;nan;99932.84;7392018;19;20373;-85
2023/09/29 09:38:43;;;;;;;0.15;0.10;;;;;;;17.06;nan;99928.00;7395234;19;20032;-85
2023/09/29 09:41:10;;;;;;;0.30;0.30;;;;;;;17.12;nan;99933.56;7394177;19;20019;-86
2023/09/29 09:43:37;;;;;;;0.40;0.40;;;;;;;17.22;nan;99946.81;7393813;19;20047;-85
2023/09/29 09:46:11;;;;;;;4.75;0.45;;;;;;;17.31;nan;99937.31;7395427;19;20031;-85
2023/09/29 09:48:49;;;;;;;0.40;0.35;;;;;;;17.35;nan;99943.44;7394177;19;20014;-85
2023/09/29 09:51:30;;;;;;;0.20;0.20;;;;;;;17.35;nan;99952.66;7398049;19;20082;-85
2023/09/29 09:54:03;;;;;;;0.20;0.10;;;;;;;17.25;nan;99950.66;7398325;19;20007;-86
2023/09/29 09:57:08;;;;;;;0.55;0.55;;;;;;;17.39;nan;99958.75;7392278;19;20356;-86
2023/09/29 09:59:35;;;;;;;1.42;0.57;;;;;;;17.37;nan;99954.94;7393093;19;20488;-85
2023/09/29 10:02:06;;;;;;;0.22;0.08;;;;;;;17.42;nan;99969.00;7393243;19;20482;-84
2023/09/29 10:04:38;;;;;;;5.20;0.82;;;;;;;20.70;nan;99969.53;7395074;19;20025;-85
2023/09/29 10:07:04;;;;;;;0.70;0.52;;;;;;;37.47;nan;99950.03;7395438;19;20073;-85
2023/09/29 10:09:43;;;;;;;0.22;0.22;;;;;;;45.79;nan;99944.78;7395111;19;20044;-85
2023/09/29 10:12:22;;;;;;;0.85;0.05;;;;;;;47.47;nan;99942.44;7394786;19;20011;-85
2023/09/29 10:14:48;;;;;;;0.10;0.10;;;;;;;47.76;nan;99943.91;7392131;19;20077;-86
2023/09/29 10:17:14;;;;;;;1.58;0.20;;;;;;;48.23;nan;99950.41;7394491;19;20031;-86
2023/09/29 10:19:40;;;;;;;6.30;0.93;;;;;;;44.10;nan;99954.03;7391272;19;20017;-86
2023/09/29 10:22:08;;;;;;;0.10;0.10;;;;;;;25.21;nan;99985.78;7391615;19;20387;-85
2023/09/29 10:24:35;;;;;;;0.20;0.10;;;;;;;20.95;nan;99996.34;7393743;19;20086;-85
2023/09/29 10:27:11;;;;;;;0.63;0.60;;;;;;;20.58;nan;100005.00;7393608;19;20026;-85
2023/09/29 10:29:38;;;;;;;1.17;0.35;;;;;;;17.40;nan;100011.00;7393442;19;20053;-85
2023/09/29 10:32:08;;;;;;;0.08;0.05;;;;;;;19.41;nan;100013.69;7391615;19;20014;-85
2023/09/29 10:34:35;;;;;;;0.30;0.10;;;;;;;18.57;nan;100024.34;7391681;19;20014;-84
2023/09/29 10:37:02;;;;;;;2.22;0.60;;;;;;;17.19;nan;100020.28;7393804;19;20105;-85
2023/09/29 10:39:29;;;;;;;1.10;0.30;;;;;;;16.40;nan;100020.91;7389748;19;20014;-84
2023/09/29 10:42:14;;;;;;;1.05;0.65;;;;;;;16.13;nan;100019.66;7390428;19;20045;-85
2023/09/29 10:44:44;;;;;;;2.67;0.35;;;;;;;22.81;nan;100010.16;7389790;19;20022;-85
2023/09/29 10:47:14;;;;;;;0.55;0.10;;;;;;;18.11;nan;100028.78;7395371;19;20390;-85
2023/09/29 10:49:46;;;;;;;1.63;0.50;;;;;;;18.26;nan;100019.94;7393466;19;20043;-85
2023/09/29 10:52:22;;;;;;;1.75;0.20;;;;;;;23.22;nan;100018.59;7393631;19;20491;-85
2023/09/29 10:54:56;;;;;;;0.22;0.20;;;;;;;21.47;nan;100023.91;7396378;19;20022;-85
2023/09/29 10:57:23;;;;;;;12.35;1.05;;;;;;;25.64;nan;100016.06;7392668;19;20010;-83
2023/09/29 10:59:49;;;;;;;0.47;0.30;;;;;;;21.56;nan;100020.63;7389396;19;20037;-84
2023/09/29 11:02:16;;;;;;;0.60;0.40;;;;;;;20.03;nan;100029.25;7391361;19;20078;-85
2023/09/29 11:04:46;;;;;;;2.17;0.82;;;;;;;24.53;nan;100026.47;7390120;19;20018;-85
2023/09/29 11:07:15;;;;;;;7.00;0.90;;;;;;;20.51;nan;100031.09;7393734;19;20019;-85
2023/09/29 11:09:41;;;;;;;0.88;0.28;;;;;;;20.80;nan;100041.41;7396201;19;20503;-84
2023/09/29 11:12:17;;;;;;;8.40;0.68;;;;;;;18.87;nan;100042.00;7393772;19;20007;-85
2023/09/29 11:14:43;;;;;;;0.45;0.32;;;;;;;19.96;nan;100031.94;7394157;19;20505;-84
2023/09/29 11:17:10;;;;;;;2.17;0.20;;;;;;;20.80;nan;100044.22;7388583;19;20014;-84
2023/09/29 11:19:36;;;;;;;0.45;0.40;;;;;;;22.01;nan;100043.09;7389312;19;20435;-83
2023/09/29 11:22:04;;;;;;;0.10;0.10;;;;;;;26.44;nan;100043.25;7389813;19;20784;-83
2023/09/29 11:24:39;;;;;;;0.55;0.20;;;;;;;26.81;nan;100045.06;7394773;19;20478;-82
2023/09/29 11:27:05;;;;;;;0.10;0.00;;;;;;;42.01;nan;100010.16;7393946;19;20031;-83
2023/09/29 11:29:31;;;;;;;2.97;0.25;;;;;;;44.64;nan;99998.09;7391850;19;20082;-83
2023/09/29 11:32:01;;;;;;;0.30;0.30;;;;;;;25.23;nan;100040.13;7391880;19;20410;-83
2023/09/29 11:34:29;;;;;;;0.10;0.10;;;;;;;20.61;nan;100052.03;7390989;19;20491;-83
2023/09/29 11:36:56;;;;;;;2.38;0.28;;;;;;;19.01;nan;100051.34;7388225;19;20011;-84
2023/09/29 11:39:22;;;;;;;0.50;0.20;;;;;;;18.37;nan;100059.34;7389020;19;20026;-83
2023/09/29 11:41:49;;;;;;;3.13;0.20;;;;;;;19.34;nan;100048.94;7390596;19;20023;-83
2023/09/29 11:44:15;;;;;;;4.72;0.10;;;;;;;19.19;nan;100062.69;7389435;19;20419;-83
2023/09/29 11:46:42;;;;;;;0.22;0.15;;;;;;;18.11;nan;100062.59;7393702;19;20082;-83
2023/09/29 11:49:08;;;;;;;1.60;0.75;;;;;;;18.11;nan;100068.25;7391467;19;20027;-83
2023/09/29 11:51:37;;;;;;;0.00;0.00;;;;;;;18.14;nan;100063.63;7389266;19;20479;-84
2023/09/29 11:54:04;;;;;;;0.85;0.32;;;;;;;18.09;nan;100075.69;7392775;19;20023;-84